Time;durP1;ratioP1;P1;durP2;ratioP2;P2;SDS_P1;SDS_P2;PMS_P1;PMS_P2;Temp;Humidity;BMP_temperature;BMP_pressure;BME280_temperature;BME280_humidity;BME280_pressure;Samples;Min_cycle;Max_cycle;Signal;HPM_P1;HPM_P2
2021/11/28 00:00:22;;;;;;;8.70;7.90;;;12.30;55.30;;;;;;5116709;28;20044;-77
2021/11/28 00:02:48;;;;;;;9.65;8.57;;;12.30;55.40;;;;;;5115867;28;20051;-77
2021/11/28 00:05:16;;;;;;;9.80;8.40;;;12.30;55.50;;;;;;5116884;28;20051;-78
2021/11/28 00:10:42;;;;;;;9.35;8.55;;;12.20;55.70;;;;;;5116916;28;20134;-76
2021/11/28 00:13:09;;;;;;;9.38;8.45;;;12.20;55.80;;;;;;5116477;28;20135;-77
2021/11/28 00:15:36;;;;;;;10.93;8.10;;;12.20;56.00;;;;;;5117073;28;20058;-77
2021/11/28 00:18:03;;;;;;;10.02;9.02;;;12.20;56.10;;;;;;5116211;28;20055;-77
2021/11/28 00:20:29;;;;;;;9.48;8.57;;;12.20;56.30;;;;;;5116770;28;20104;-77
2021/11/28 00:22:55;;;;;;;9.38;8.48;;;12.20;56.30;;;;;;5116639;28;20055;-77
2021/11/28 00:25:21;;;;;;;10.25;9.15;;;12.20;56.40;;;;;;5117153;28;20051;-77
2021/11/28 00:27:48;;;;;;;9.52;8.63;;;12.20;56.40;;;;;;5098491;28;20058;-77
2021/11/28 00:30:18;;;;;;;9.52;8.63;;;12.20;56.50;;;;;;5116428;28;20378;-77
2021/11/28 00:32:44;;;;;;;10.73;9.20;;;12.20;56.50;;;;;;5115984;28;20052;-77
2021/11/28 00:35:10;;;;;;;10.15;9.13;;;12.20;56.60;;;;;;5116480;28;20058;-76
2021/11/28 00:37:36;;;;;;;9.98;8.95;;;12.10;56.50;;;;;;5116545;28;20325;-76
2021/11/28 00:40:03;;;;;;;11.77;9.73;;;12.10;56.60;;;;;;5116376;28;20044;-77
2021/11/28 00:42:29;;;;;;;10.27;9.27;;;12.10;56.50;;;;;;5115941;28;20130;-77
2021/11/28 00:44:55;;;;;;;10.50;9.00;;;12.10;56.50;;;;;;5115934;28;20079;-77
2021/11/28 00:47:20;;;;;;;10.48;9.38;;;12.10;56.50;;;;;;5115666;28;20051;-78
2021/11/28 00:50:39;;;;;;;10.73;9.65;;;12.10;56.50;;;;;;5115840;28;20131;-78
2021/11/28 00:52:36;;;;;;;10.43;9.52;;;12.00;56.50;;;;;;5104999;28;20048;-77
2021/11/28 00:55:04;;;;;;;11.32;9.15;;;12.00;56.30;;;;;;5115614;28;20039;-78
2021/11/28 00:57:30;;;;;;;11.25;10.10;;;12.00;56.20;;;;;;5115607;28;20135;-77
2021/11/28 00:59:56;;;;;;;10.57;9.48;;;11.90;56.20;;;;;;5115756;28;20087;-78
2021/11/28 01:02:22;;;;;;;10.40;9.45;;;11.90;56.20;;;;;;5115106;28;20082;-78
2021/11/28 01:04:48;;;;;;;10.25;9.18;;;11.90;56.20;;;;;;5115982;28;20054;-77
2021/11/28 01:07:14;;;;;;;10.43;9.43;;;11.90;56.10;;;;;;5115800;28;20367;-77
2021/11/28 01:09:40;;;;;;;10.43;9.32;;;11.90;56.10;;;;;;5115576;28;20047;-77
2021/11/28 01:12:07;;;;;;;10.35;9.32;;;11.90;56.10;;;;;;5115912;28;20043;-77
2021/11/28 01:14:33;;;;;;;11.43;10.20;;;11.90;56.10;;;;;;5115795;28;20039;-77
2021/11/28 01:16:59;;;;;;;11.88;9.55;;;11.80;56.10;;;;;;5115503;28;20043;-77
2021/11/28 01:19:25;;;;;;;10.15;9.20;;;11.80;56.00;;;;;;5097862;28;20035;-76
2021/11/28 01:21:54;;;;;;;10.00;9.10;;;11.80;56.10;;;;;;5116286;28;20094;-77
2021/11/28 01:24:20;;;;;;;9.88;8.88;;;11.80;56.10;;;;;;5115349;28;20052;-77
2021/11/28 01:26:46;;;;;;;9.65;8.75;;;11.80;56.10;;;;;;5097822;28;20473;-78
2021/11/28 01:29:12;;;;;;;10.02;9.02;;;11.70;55.90;;;;;;5097794;28;20444;-77
2021/11/28 01:31:38;;;;;;;10.43;9.38;;;11.70;55.90;;;;;;5114988;28;20115;-76
2021/11/28 01:34:04;;;;;;;10.40;9.30;;;11.70;55.90;;;;;;5097456;28;20382;-77
2021/11/28 01:36:29;;;;;;;10.25;9.35;;;11.70;56.00;;;;;;5115775;28;20049;-77
2021/11/28 01:38:55;;;;;;;9.80;8.77;;;11.70;56.00;;;;;;5115268;28;20075;-77
2021/11/28 01:41:21;;;;;;;11.13;9.63;;;11.60;56.60;;;;;;5115322;28;20051;-77
2021/11/28 01:43:50;;;;;;;10.43;9.43;;;11.60;56.00;;;;;;5092747;28;20058;-76
2021/11/28 01:46:18;;;;;;;11.00;9.82;;;11.60;56.00;;;;;;5076976;28;20352;-76
2021/11/28 01:48:44;;;;;;;9.98;8.98;;;11.60;56.10;;;;;;5095610;28;20044;-77
2021/11/28 01:51:09;;;;;;;11.52;9.80;;;11.60;56.20;;;;;;5077278;28;20063;-77
2021/11/28 01:53:36;;;;;;;10.60;9.50;;;11.60;56.30;;;;;;5077800;28;20363;-76
2021/11/28 01:56:03;;;;;;;11.13;9.60;;;11.60;56.30;;;;;;5094642;28;20052;-77
2021/11/28 01:58:28;;;;;;;12.30;10.40;;;11.60;56.30;;;;;;5095236;28;20044;-77
2021/11/28 02:00:57;;;;;;;11.10;10.00;;;11.50;56.30;;;;;;5098151;28;20483;-77
2021/11/28 02:03:23;;;;;;;10.95;9.85;;;11.60;56.30;;;;;;5114587;28;20140;-77
2021/11/28 02:05:53;;;;;;;11.35;10.18;;;11.50;56.30;;;;;;5115066;28;20066;-77
2021/11/28 02:08:19;;;;;;;10.85;9.75;;;11.50;56.30;;;;;;5097509;28;20134;-76
2021/11/28 02:10:46;;;;;;;11.35;10.23;;;11.50;56.30;;;;;;5097320;28;20043;-77
2021/11/28 02:13:13;;;;;;;9.90;9.00;;;11.50;56.30;;;;;;5099251;28;20112;-77
2021/11/28 02:15:38;;;;;;;10.55;9.50;;;11.50;56.20;;;;;;5119147;28;20054;-76
2021/11/28 02:18:05;;;;;;;10.88;9.35;;;11.40;56.10;;;;;;5119065;28;20036;-77
2021/11/28 02:20:31;;;;;;;10.82;9.73;;;11.40;56.00;;;;;;5118886;28;20043;-76
2021/11/28 02:22:59;;;;;;;10.05;8.75;;;11.40;56.00;;;;;;5100793;28;20039;-77
2021/11/28 02:25:26;;;;;;;10.35;9.35;;;11.40;56.00;;;;;;5118720;28;20036;-76
2021/11/28 02:27:53;;;;;;;11.10;9.80;;;11.40;56.00;;;;;;5119378;28;20052;-76
2021/11/28 02:30:19;;;;;;;11.27;10.18;;;11.40;56.10;;;;;;5118661;28;20043;-77
2021/11/28 02:32:47;;;;;;;11.80;10.70;;;11.40;56.10;;;;;;5118670;28;20078;-75
2021/11/28 02:35:14;;;;;;;11.57;10.48;;;11.40;56.10;;;;;;5118223;28;20044;-76
2021/11/28 02:37:45;;;;;;;11.65;10.55;;;11.40;56.10;;;;;;5118729;28;20078;-75
2021/11/28 02:40:13;;;;;;;12.25;10.93;;;11.40;56.00;;;;;;5100272;28;20047;-76
2021/11/28 02:42:39;;;;;;;12.77;11.45;;;11.30;56.10;;;;;;5118837;28;20059;-76
2021/11/28 02:45:06;;;;;;;13.13;11.38;;;11.30;56.30;;;;;;5118484;28;20063;-76
2021/11/28 02:47:32;;;;;;;14.20;12.75;;;11.30;56.40;;;;;;5117892;28;20047;-76
2021/11/28 02:49:58;;;;;;;13.68;12.40;;;11.30;56.50;;;;;;5118348;28;20047;-77
2021/11/28 02:52:25;;;;;;;13.82;12.32;;;11.30;56.60;;;;;;5117323;28;20096;-76
2021/11/28 02:54:51;;;;;;;15.40;13.70;;;11.30;56.50;;;;;;5118332;28;20377;-76
2021/11/28 02:57:16;;;;;;;15.63;13.05;;;11.30;56.50;;;;;;5118196;28;20118;-77
2021/11/28 02:59:42;;;;;;;16.50;14.80;;;11.30;56.50;;;;;;5118008;28;20074;-76
2021/11/28 03:02:08;;;;;;;14.65;13.15;;;11.20;56.50;;;;;;5117674;28;20102;-78
2021/11/28 03:04:34;;;;;;;15.80;14.10;;;11.30;56.50;;;;;;5118215;28;20051;-76
2021/11/28 03:06:59;;;;;;;16.85;13.93;;;11.20;56.50;;;;;;5099963;28;20052;-77
2021/11/28 03:09:25;;;;;;;15.68;13.85;;;11.20;56.50;;;;;;5117982;28;20044;-77
2021/11/28 03:11:51;;;;;;;15.35;13.75;;;11.20;56.50;;;;;;5118163;28;20057;-77
2021/11/28 03:14:17;;;;;;;16.42;14.73;;;11.20;56.60;;;;;;5118030;28;20040;-75
2021/11/28 03:16:42;;;;;;;15.90;14.05;;;11.20;56.70;;;;;;5100604;28;20082;-76
2021/11/28 03:19:08;;;;;;;15.77;13.95;;;11.20;56.60;;;;;;5117937;28;20110;-76
2021/11/28 03:21:34;;;;;;;16.65;13.60;;;11.20;56.70;;;;;;5117816;28;20415;-76
2021/11/28 03:24:04;;;;;;;17.60;14.35;;;11.20;56.70;;;;;;5116230;28;20123;-77
2021/11/28 03:26:41;;;;;;;15.55;13.35;;;11.20;56.70;;;;;;5099998;28;20452;-76
2021/11/28 03:29:13;;;;;;;16.83;13.48;;;11.20;56.80;;;;;;5117614;28;20509;-77
2021/11/28 03:31:41;;;;;;;14.93;13.02;;;11.20;56.80;;;;;;5117150;28;20048;-76
2021/11/28 03:34:09;;;;;;;14.45;13.02;;;11.10;56.80;;;;;;5117415;28;20047;-77
2021/11/28 03:36:43;;;;;;;15.90;13.70;;;11.10;56.90;;;;;;5117779;28;20044;-76
2021/11/28 03:39:11;;;;;;;15.15;13.48;;;11.10;57.00;;;;;;5117484;28;20043;-76
2021/11/28 03:41:37;;;;;;;17.17;13.70;;;11.10;57.10;;;;;;5117090;28;20500;-77
2021/11/28 03:44:06;;;;;;;15.00;12.77;;;11.10;57.10;;;;;;5117431;28;20043;-77
2021/11/28 03:46:32;;;;;;;13.85;12.25;;;11.20;57.10;;;;;;5099377;28;20056;-76
2021/11/28 03:48:59;;;;;;;12.45;11.13;;;11.10;57.10;;;;;;5117753;28;20043;-77
2021/11/28 03:51:26;;;;;;;13.18;11.20;;;11.10;57.10;;;;;;5116686;28;20082;-77
2021/11/28 03:53:52;;;;;;;12.40;10.82;;;11.10;57.10;;;;;;5114866;28;20040;-77
2021/11/28 03:56:18;;;;;;;12.55;11.23;;;11.10;57.10;;;;;;5098894;28;20054;-76
2021/11/28 03:58:44;;;;;;;12.68;11.35;;;11.10;57.10;;;;;;5116566;28;20047;-75
2021/11/28 04:01:12;;;;;;;12.52;11.23;;;11.10;57.10;;;;;;5116531;28;20092;-77
2021/11/28 04:03:38;;;;;;;15.38;11.18;;;11.10;57.10;;;;;;5078835;28;20320;-78
2021/11/28 04:06:05;;;;;;;12.23;10.93;;;11.10;57.10;;;;;;5096638;28;20044;-77
2021/11/28 04:08:31;;;;;;;13.32;10.85;;;11.10;57.10;;;;;;5096546;28;20044;-77
2021/11/28 04:10:57;;;;;;;12.30;10.85;;;11.00;57.00;;;;;;5096107;28;20043;-77
2021/11/28 04:13:22;;;;;;;12.30;10.30;;;11.00;56.90;;;;;;5096834;28;20051;-77
2021/11/28 04:15:48;;;;;;;10.95;9.85;;;11.00;56.90;;;;;;5096262;28;20127;-76
2021/11/28 04:18:14;;;;;;;10.98;9.70;;;11.00;56.90;;;;;;5096164;28;20044;-76
2021/11/28 04:20:42;;;;;;;11.65;9.73;;;11.00;56.90;;;;;;5096416;28;20123;-77
2021/11/28 04:23:08;;;;;;;11.63;10.20;;;11.00;56.90;;;;;;5096267;28;20051;-77
2021/11/28 04:25:34;;;;;;;10.63;9.52;;;11.00;56.90;;;;;;5096002;28;20043;-77
2021/11/28 04:28:00;;;;;;;9.48;8.57;;;10.90;56.90;;;;;;5078205;28;20048;-76
2021/11/28 04:30:28;;;;;;;8.90;7.93;;;10.90;56.90;;;;;;5096177;28;20055;-77
2021/11/28 04:32:54;;;;;;;11.38;8.00;;;10.90;57.00;;;;;;5109340;28;20048;-76
2021/11/28 04:35:21;;;;;;;9.00;7.07;;;10.90;57.00;;;;;;5098446;28;20040;-76
2021/11/28 04:37:47;;;;;;;9.73;7.40;;;10.90;57.20;;;;;;5116322;28;20053;-76
2021/11/28 04:40:13;;;;;;;6.25;5.45;;;10.90;57.20;;;;;;5116238;28;20393;-76
2021/11/28 04:42:38;;;;;;;6.05;5.45;;;10.90;57.30;;;;;;5116688;28;20113;-76
2021/11/28 04:45:06;;;;;;;5.95;5.35;;;10.90;57.40;;;;;;5115992;28;20051;-76
2021/11/28 04:47:32;;;;;;;5.65;5.00;;;10.90;57.50;;;;;;5115805;28;20081;-77
2021/11/28 04:49:57;;;;;;;6.30;4.30;;;10.90;57.60;;;;;;5098509;28;20051;-76
2021/11/28 04:52:23;;;;;;;4.72;4.07;;;10.90;57.80;;;;;;5115920;28;20104;-77
2021/11/28 04:54:49;;;;;;;3.85;3.50;;;11.00;57.90;;;;;;5115888;28;20126;-76
2021/11/28 04:57:15;;;;;;;4.93;3.45;;;11.00;58.00;;;;;;5116276;28;20346;-76
2021/11/28 04:59:41;;;;;;;4.72;3.25;;;11.00;58.10;;;;;;5115737;28;20083;-76
2021/11/28 05:02:07;;;;;;;4.57;2.97;;;11.10;58.10;;;;;;5115298;28;20500;-77
2021/11/28 05:04:33;;;;;;;4.07;2.47;;;11.10;58.20;;;;;;5098276;28;20052;-76
2021/11/28 05:06:58;;;;;;;3.28;2.03;;;11.10;58.30;;;;;;5115938;28;20446;-76
2021/11/28 05:09:24;;;;;;;3.60;2.30;;;11.00;58.30;;;;;;5115323;28;20054;-75
2021/11/28 05:11:50;;;;;;;3.53;1.98;;;11.10;58.50;;;;;;5115573;28;20148;-75
2021/11/28 05:14:16;;;;;;;4.40;1.48;;;11.10;58.70;;;;;;5098154;28;20189;-76
2021/11/28 05:16:42;;;;;;;4.28;1.40;;;11.10;58.80;;;;;;5116014;28;20050;-76
2021/11/28 05:19:08;;;;;;;2.95;1.60;;;11.10;58.90;;;;;;5097930;28;20062;-76
2021/11/28 05:21:33;;;;;;;4.63;1.42;;;11.00;59.00;;;;;;5115070;28;20114;-76
2021/11/28 05:23:59;;;;;;;3.53;1.65;;;11.00;59.10;;;;;;5116051;28;20458;-76
2021/11/28 05:26:25;;;;;;;3.45;1.30;;;11.00;59.20;;;;;;5097587;28;20502;-76
2021/11/28 05:28:51;;;;;;;3.00;1.05;;;11.10;59.30;;;;;;5115868;28;20108;-76
2021/11/28 05:31:19;;;;;;;2.03;1.17;;;11.00;59.30;;;;;;5115364;28;20515;-78
2021/11/28 05:33:46;;;;;;;2.50;0.98;;;11.00;59.30;;;;;;5097875;28;20438;-77
2021/11/28 05:36:13;;;;;;;2.20;1.15;;;11.10;59.50;;;;;;5115617;28;20043;-76
2021/11/28 05:38:40;;;;;;;4.07;1.27;;;11.00;59.50;;;;;;5115646;28;20052;-76
2021/11/28 05:41:06;;;;;;;2.42;1.20;;;11.00;59.50;;;;;;5115341;28;20061;-78
2021/11/28 05:43:32;;;;;;;2.97;1.13;;;11.00;59.60;;;;;;5115455;28;20052;-76
2021/11/28 05:45:58;;;;;;;2.55;1.20;;;11.00;59.60;;;;;;5115143;28;20055;-76
2021/11/28 05:48:23;;;;;;;2.13;0.77;;;11.00;59.70;;;;;;5115803;28;20253;-77
2021/11/28 05:50:49;;;;;;;2.33;0.70;;;11.00;59.70;;;;;;5109918;28;20054;-76
2021/11/28 05:53:15;;;;;;;2.60;0.88;;;11.00;59.70;;;;;;5117589;28;20344;-77
2021/11/28 05:55:42;;;;;;;3.25;0.85;;;11.00;59.90;;;;;;5095842;28;20058;-75
2021/11/28 05:58:09;;;;;;;2.78;0.80;;;11.00;60.20;;;;;;5102265;28;20059;-77
2021/11/28 06:00:34;;;;;;;12.35;2.35;;;11.10;60.90;;;;;;5118797;28;20105;-75
2021/11/28 06:03:00;;;;;;;7.45;1.25;;;11.20;62.80;;;;;;5119036;28;20056;-74
2021/11/28 06:05:27;;;;;;;5.18;1.05;;;11.30;64.40;;;;;;5119282;28;20474;-74
2021/11/28 06:07:53;;;;;;;8.00;1.08;;;11.40;65.00;;;;;;5119009;28;20044;-75
2021/11/28 06:10:19;;;;;;;7.38;0.93;;;11.70;64.50;;;;;;5083905;28;20093;-75
2021/11/28 06:12:45;;;;;;;5.15;0.73;;;12.00;63.20;;;;;;5118873;28;20416;-75
2021/11/28 06:15:11;;;;;;;5.50;1.17;;;12.20;62.60;;;;;;5119073;28;20035;-76
2021/11/28 06:17:37;;;;;;;5.78;0.70;;;12.50;62.60;;;;;;5101888;28;20047;-75
2021/11/28 06:20:07;;;;;;;9.15;0.88;;;12.80;62.20;;;;;;5100949;28;20040;-78
2021/11/28 06:22:33;;;;;;;5.30;0.75;;;13.00;62.20;;;;;;5101649;28;20127;-77
2021/11/28 06:24:59;;;;;;;3.25;0.77;;;13.20;62.10;;;;;;5101171;28;20044;-73
2021/11/28 06:27:25;;;;;;;8.27;0.90;;;13.40;62.00;;;;;;5101210;28;20534;-76
2021/11/28 06:29:51;;;;;;;12.05;0.88;;;13.60;62.20;;;;;;5118411;28;20370;-76
2021/11/28 06:32:17;;;;;;;7.40;0.70;;;13.80;62.30;;;;;;5115538;27;20451;-77
2021/11/28 06:34:44;;;;;;;5.53;1.17;;;14.00;62.30;;;;;;5118367;28;20055;-77
2021/11/28 06:37:10;;;;;;;8.70;0.70;;;14.10;62.30;;;;;;5118978;28;20054;-76
2021/11/28 06:39:36;;;;;;;4.47;0.88;;;14.30;62.40;;;;;;5097801;28;20055;-77
2021/11/28 06:42:02;;;;;;;9.88;1.25;;;14.40;62.40;;;;;;5097973;28;20044;-77
2021/11/28 06:44:28;;;;;;;6.55;0.82;;;14.50;62.30;;;;;;5098049;28;20048;-77
2021/11/28 06:46:53;;;;;;;6.75;0.82;;;14.60;62.40;;;;;;5097312;28;20463;-77
2021/11/28 06:49:21;;;;;;;9.55;1.15;;;14.70;62.20;;;;;;5097785;28;20071;-76
2021/11/28 06:51:46;;;;;;;11.15;1.05;;;14.80;62.00;;;;;;5097738;28;20083;-76
2021/11/28 06:54:12;;;;;;;15.25;1.00;;;14.90;61.80;;;;;;5097471;28;20079;-75
2021/11/28 06:56:38;;;;;;;6.72;1.33;;;15.00;62.20;;;;;;5097591;28;20044;-79
2021/11/28 06:59:03;;;;;;;8.00;0.90;;;15.10;62.20;;;;;;5078571;28;20052;-76
2021/11/28 07:01:29;;;;;;;2.88;0.50;;;15.20;62.10;;;;;;5097499;28;20127;-76
2021/11/28 07:03:55;;;;;;;4.82;0.47;;;15.30;62.80;;;;;;5114354;28;20112;-76
2021/11/28 07:06:20;;;;;;;5.82;0.52;;;15.30;61.70;;;;;;5118253;28;20105;-77
2021/11/28 07:08:46;;;;;;;8.65;0.73;;;15.40;61.80;;;;;;5117643;28;20101;-78
2021/11/28 07:11:12;;;;;;;5.88;0.82;;;15.50;62.10;;;;;;5117767;28;20059;-76
2021/11/28 07:13:38;;;;;;;15.75;1.05;;;15.60;62.10;;;;;;5117930;28;20054;-76
2021/11/28 07:16:04;;;;;;;8.82;1.27;;;15.60;62.10;;;;;;5117947;28;20039;-76
2021/11/28 07:18:29;;;;;;;10.57;0.80;;;15.70;62.00;;;;;;5118434;28;20112;-79
2021/11/28 07:20:55;;;;;;;9.70;1.00;;;15.80;61.80;;;;;;5117612;28;20044;-77
2021/11/28 07:39:38;;;;;;;7.40;1.77;;;16.50;61.40;;;;;;6015691;22;20124;-81
2021/11/28 07:46:00;;;;;;;10.40;0.70;;;16.60;61.40;;;;;;4960776;28;20055;-81
2021/11/28 07:48:26;;;;;;;3.58;0.80;;;16.60;61.30;;;;;;4960004;28;20046;-78
2021/11/28 07:50:52;;;;;;;8.05;0.65;;;16.70;60.90;;;;;;4976925;28;20045;-74
2021/11/28 07:53:19;;;;;;;8.77;1.23;;;16.80;60.90;;;;;;4938640;28;20133;-78
2021/11/28 07:56:03;;;;;;;5.72;0.85;;;17.00;60.60;;;;;;4977430;28;20043;-79
2021/11/28 07:58:28;;;;;;;;;;;17.00;60.20;;;;;;4961223;28;20469;-82
2021/11/28 08:00:56;;;;;;;4.05;0.52;;;17.10;59.80;;;;;;4974724;28;19918;-82
2021/11/28 08:06:48;;;;;;;12.55;1.08;;;16.90;58.90;;;;;;4979219;28;20050;-78
2021/11/28 08:09:23;;;;;;;8.38;0.63;;;17.00;58.20;;;;;;4996288;28;20363;-82
2021/11/28 08:20:28;;;;;;;4.90;0.90;;;17.40;59.40;;;;;;4983101;28;20073;-84
2021/11/28 08:22:59;;;;;;;5.68;0.73;;;17.50;59.00;;;;;;4978947;28;20038;-82
2021/11/28 08:25:25;;;;;;;9.55;0.70;;;17.50;58.80;;;;;;4962848;28;20078;-81
2021/11/28 08:27:51;;;;;;;3.63;0.50;;;17.50;58.70;;;;;;4996291;28;20144;-80
2021/11/28 08:30:17;;;;;;;5.53;0.68;;;17.50;58.60;;;;;;4979447;28;20061;-82
2021/11/28 08:32:45;;;;;;;9.07;0.80;;;17.70;58.40;;;;;;4979340;28;20046;-79
2021/11/28 08:35:11;;;;;;;3.33;0.40;;;17.70;58.00;;;;;;4996488;28;20042;-77
2021/11/28 08:37:37;;;;;;;9.68;0.75;;;17.70;58.20;;;;;;4996160;28;20113;-76
2021/11/28 08:40:05;;;;;;;4.68;0.80;;;17.80;58.30;;;;;;4995768;28;20054;-80
2021/11/28 08:42:33;;;;;;;3.60;0.40;;;17.80;57.90;;;;;;4996180;28;20074;-80
2021/11/28 08:45:00;;;;;;;4.70;0.85;;;17.80;57.10;;;;;;4996092;28;20123;-79
2021/11/28 08:47:26;;;;;;;3.67;0.88;;;17.70;57.30;;;;;;4979256;28;20046;-78
2021/11/28 08:49:55;;;;;;;8.93;0.57;;;17.70;57.50;;;;;;4996252;28;20073;-78
2021/11/28 08:52:22;;;;;;;7.40;0.45;;;17.70;57.60;;;;;;4996105;28;20066;-78
2021/11/28 08:54:48;;;;;;;5.45;0.50;;;17.70;57.70;;;;;;4978815;28;20042;-79
2021/11/28 08:57:13;;;;;;;5.40;0.63;;;17.70;57.90;;;;;;4957210;28;20512;-79
2021/11/28 08:59:40;;;;;;;5.43;0.65;;;17.60;57.90;;;;;;4959449;28;20125;-77
2021/11/28 09:02:06;;;;;;;15.85;0.75;;;17.50;58.00;;;;;;4965557;28;20058;-80
2021/11/28 09:04:32;;;;;;;4.72;0.47;;;17.40;57.80;;;;;;4958635;28;20117;-77
2021/11/28 09:06:58;;;;;;;6.18;0.50;;;17.20;58.30;;;;;;4988000;28;20050;-78
2021/11/28 09:09:23;;;;;;;10.18;0.85;;;17.20;58.70;;;;;;4976873;28;20490;-79
2021/11/28 09:11:49;;;;;;;4.15;0.40;;;17.10;59.00;;;;;;4959460;28;20050;-81
2021/11/28 09:14:15;;;;;;;5.53;0.47;;;17.00;59.10;;;;;;4976219;28;20047;-78
2021/11/28 09:16:41;;;;;;;2.47;0.30;;;17.00;59.30;;;;;;4959094;28;20046;-77
2021/11/28 09:19:12;;;;;;;3.53;0.20;;;16.90;59.40;;;;;;4962281;28;20054;-79
2021/11/28 09:21:39;;;;;;;1.85;0.22;;;16.90;59.50;;;;;;4978175;28;20126;-78
2021/11/28 09:27:21;;;;;;;2.78;0.45;;;16.80;59.70;;;;;;4926722;29;20055;-80
2021/11/28 09:29:47;;;;;;;2.42;0.20;;;16.80;59.90;;;;;;4952896;28;20101;-72
2021/11/28 09:32:15;;;;;;;2.30;0.32;;;16.80;59.90;;;;;;4975798;28;20082;-79
2021/11/28 09:34:41;;;;;;;1.85;0.22;;;16.80;59.90;;;;;;4958926;28;20122;-77
2021/11/28 09:37:08;;;;;;;3.15;0.30;;;16.80;59.80;;;;;;4958959;28;20126;-78
2021/11/28 09:39:37;;;;;;;2.45;0.30;;;16.80;59.70;;;;;;4957681;28;20057;-77
2021/11/28 09:42:08;;;;;;;5.72;0.60;;;16.80;59.80;;;;;;4976381;28;20549;-76
2021/11/28 09:44:37;;;;;;;4.00;0.28;;;16.90;60.00;;;;;;4975956;28;20391;-78
2021/11/28 09:47:05;;;;;;;5.38;0.52;;;16.80;60.00;;;;;;4975732;28;20129;-78
2021/11/28 09:49:31;;;;;;;3.40;0.25;;;16.80;60.20;;;;;;4959020;28;20050;-76
2021/11/28 09:52:04;;;;;;;3.63;0.30;;;16.80;60.30;;;;;;4976331;28;20061;-76
2021/11/28 09:54:31;;;;;;;2.20;0.23;;;16.70;61.00;;;;;;4959073;28;20057;-77
2021/11/28 09:56:57;;;;;;;2.17;0.32;;;16.70;60.60;;;;;;4976018;28;20090;-77
2021/11/28 09:59:23;;;;;;;3.47;0.40;;;16.70;60.50;;;;;;4975750;28;20086;-78
2021/11/28 10:01:49;;;;;;;5.95;0.38;;;16.70;60.60;;;;;;4975715;28;20046;-77
2021/11/28 10:04:16;;;;;;;4.80;0.52;;;16.80;60.60;;;;;;4975898;28;20082;-77
2021/11/28 10:06:42;;;;;;;2.55;0.32;;;16.80;60.50;;;;;;4975869;28;20042;-78
2021/11/28 10:09:08;;;;;;;3.75;0.32;;;16.90;60.30;;;;;;4979560;28;20100;-78
2021/11/28 10:11:40;;;;;;;1.77;0.30;;;16.90;60.30;;;;;;4956286;29;20059;-77
2021/11/28 10:14:14;;;;;;;4.10;0.50;;;17.00;60.10;;;;;;4956792;29;20136;-77
2021/11/28 10:16:40;;;;;;;;;;;17.00;60.00;;;;;;4940394;29;20436;-78
2021/11/28 10:19:07;;;;;;;1.60;0.20;;;17.00;60.00;;;;;;4956616;29;19923;-76
2021/11/28 10:21:33;;;;;;;3.00;0.63;;;17.10;59.90;;;;;;4939859;29;20062;-77
2021/11/28 10:24:13;;;;;;;1.38;0.20;;;17.10;59.80;;;;;;4956208;29;20062;-75
2021/11/28 10:26:56;;;;;;;3.42;0.47;;;17.10;59.90;;;;;;4962438;28;20043;-73
2021/11/28 10:29:26;;;;;;;9.50;0.73;;;17.00;59.50;;;;;;4975630;28;20046;-77
2021/11/28 10:31:54;;;;;;;6.15;0.40;;;17.10;59.60;;;;;;4975790;28;20121;-78
2021/11/28 10:34:25;;;;;;;4.32;0.30;;;17.10;59.90;;;;;;4977676;28;20113;-77
2021/11/28 10:37:00;;;;;;;4.07;0.57;;;17.10;60.10;;;;;;4979155;28;20055;-77
2021/11/28 10:39:26;;;;;;;4.00;0.40;;;17.10;60.30;;;;;;4961543;28;20038;-79
2021/11/28 10:41:54;;;;;;;4.03;0.38;;;17.10;60.60;;;;;;4978985;28;20043;-79
2021/11/28 10:44:23;;;;;;;7.82;0.75;;;17.10;60.70;;;;;;4979215;28;20059;-81
2021/11/28 10:46:49;;;;;;;5.43;0.60;;;17.00;59.10;;;;;;4978984;28;20174;-77
2021/11/28 10:49:21;;;;;;;2.30;0.30;;;17.00;61.00;;;;;;4978912;28;20138;-78
2021/11/28 10:51:53;;;;;;;2.60;0.32;;;17.10;61.10;;;;;;4978744;28;20050;-77
2021/11/28 10:54:33;;;;;;;2.17;0.60;;;17.20;61.20;;;;;;4961906;28;20175;-77
2021/11/28 10:57:08;;;;;;;3.45;0.40;;;17.30;61.20;;;;;;4978498;28;20133;-78
2021/11/28 10:59:35;;;;;;;4.13;0.63;;;17.30;61.20;;;;;;4978121;28;20391;-77
2021/11/28 11:02:17;;;;;;;4.65;0.43;;;17.30;61.30;;;;;;4978147;28;20057;-79
2021/11/28 11:04:44;;;;;;;7.80;1.40;;;17.40;61.40;;;;;;4977927;28;20046;-80
2021/11/28 11:07:12;;;;;;;3.92;0.50;;;16.90;62.30;;;;;;4978567;28;20098;-79
2021/11/28 11:09:43;;;;;;;5.32;0.60;;;16.90;62.70;;;;;;4978441;28;20324;-78
2021/11/28 11:12:28;;;;;;;6.63;0.65;;;17.00;62.80;;;;;;4978361;28;20058;-75
2021/11/28 11:14:59;;;;;;;4.13;0.70;;;16.90;62.00;;;;;;4981600;28;20187;-76
2021/11/28 11:17:31;;;;;;;5.90;0.50;;;17.00;62.50;;;;;;4997013;28;20454;-73
2021/11/28 11:19:58;;;;;;;6.22;0.70;;;17.00;62.10;;;;;;4983412;28;20490;-74
2021/11/28 11:22:25;;;;;;;2.25;0.47;;;17.00;62.00;;;;;;4946324;28;20129;-71
2021/11/28 11:25:19;;;;;;;1.95;0.40;;;17.10;61.80;;;;;;4977708;28;20443;-70
2021/11/28 11:27:45;;;;;;;3.93;0.60;;;17.10;61.60;;;;;;4978032;28;20362;-72
2021/11/28 11:30:25;;;;;;;3.58;0.38;;;17.20;61.50;;;;;;4978248;28;20046;-70
2021/11/28 11:32:54;;;;;;;5.47;0.35;;;17.30;61.30;;;;;;4994711;28;20054;-70
2021/11/28 11:35:27;;;;;;;4.20;0.40;;;17.30;61.00;;;;;;4997374;28;20046;-70
2021/11/28 11:37:57;;;;;;;6.35;0.60;;;17.40;60.90;;;;;;4987733;28;20470;-70
2021/11/28 11:40:25;;;;;;;1.95;0.35;;;17.40;60.70;;;;;;4986754;28;20078;-70
2021/11/28 11:42:52;;;;;;;3.53;0.30;;;17.50;60.60;;;;;;4977872;28;20055;-70
2021/11/28 11:45:24;;;;;;;3.15;0.30;;;17.60;60.40;;;;;;4985994;28;20109;-70
2021/11/28 11:47:50;;;;;;;2.28;0.30;;;17.60;60.20;;;;;;4979372;28;20051;-70
2021/11/28 11:50:19;;;;;;;2.22;0.30;;;17.60;60.10;;;;;;4996793;28;20050;-70
2021/11/28 11:52:45;;;;;;;1.60;0.50;;;17.70;60.00;;;;;;4981699;28;20069;-70
2021/11/28 11:55:15;;;;;;;2.65;0.85;;;17.70;60.00;;;;;;4977226;28;20537;-70
2021/11/28 11:58:07;;;;;;;2.33;0.50;;;17.70;59.90;;;;;;4978305;28;20097;-70
2021/11/28 12:00:47;;;;;;;2.28;0.35;;;17.70;59.80;;;;;;4978020;28;20051;-70
2021/11/28 12:03:20;;;;;;;4.10;0.50;;;17.70;59.70;;;;;;4983091;28;20101;-70
2021/11/28 12:05:47;;;;;;;2.35;0.30;;;17.80;59.60;;;;;;4977688;28;20439;-70
2021/11/28 12:08:13;;;;;;;1.27;0.10;;;17.80;59.60;;;;;;4988715;28;20057;-71
2021/11/28 12:11:06;;;;;;;2.95;0.17;;;17.80;59.40;;;;;;4995984;28;20046;-70
2021/11/28 12:13:32;;;;;;;1.10;0.20;;;17.90;59.30;;;;;;4987172;28;20047;-70
2021/11/28 12:16:04;;;;;;;2.47;0.50;;;17.90;59.30;;;;;;4977710;28;20046;-70
2021/11/28 12:18:41;;;;;;;2.50;0.50;;;17.90;59.20;;;;;;4992250;28;20042;-70
2021/11/28 12:21:11;;;;;;;1.48;0.20;;;17.90;59.20;;;;;;4994497;28;20055;-70
2021/11/28 12:23:56;;;;;;;0.28;0.10;;;18.00;59.20;;;;;;4996803;28;20378;-70
2021/11/28 12:26:28;;;;;;;1.80;0.20;;;18.00;58.90;;;;;;4995951;28;20038;-71
2021/11/28 12:28:58;;;;;;;3.45;0.30;;;18.00;58.90;;;;;;4957905;29;20051;-70
2021/11/28 12:31:36;;;;;;;1.80;0.30;;;17.70;59.70;;;;;;4961152;28;20051;-70
2021/11/28 12:34:07;;;;;;;0.95;0.10;;;17.80;59.40;;;;;;4992133;28;20082;-71
2021/11/28 12:36:39;;;;;;;2.08;0.20;;;17.80;59.30;;;;;;4996543;28;20432;-71
2021/11/28 12:39:06;;;;;;;2.83;0.43;;;17.80;59.40;;;;;;4985684;28;20046;-71
2021/11/28 12:41:44;;;;;;;2.40;0.40;;;17.80;59.40;;;;;;4996508;28;20075;-71
2021/11/28 12:44:11;;;;;;;2.78;0.40;;;17.80;61.60;;;;;;4990173;28;20359;-72
2021/11/28 12:46:41;;;;;;;3.70;0.43;;;17.80;60.10;;;;;;4976445;28;20113;-71
2021/11/28 12:49:25;;;;;;;4.45;0.40;;;17.70;59.40;;;;;;4959623;28;20501;-79
2021/11/28 12:51:52;;;;;;;3.90;0.52;;;17.60;59.30;;;;;;4959536;28;20055;-81
2021/11/28 12:54:26;;;;;;;3.33;0.50;;;17.60;59.50;;;;;;4976638;28;20059;-79
2021/11/28 12:57:19;;;;;;;3.60;0.40;;;17.50;59.80;;;;;;4943403;28;20039;-74
2021/11/28 13:00:09;;;;;;;5.28;0.85;;;17.50;59.90;;;;;;4976603;28;20058;-72
2021/11/28 13:02:58;;;;;;;6.10;0.63;;;17.20;63.90;;;;;;4981805;28;20061;-72
2021/11/28 13:05:35;;;;;;;4.20;0.70;;;16.20;60.40;;;;;;4995739;28;20126;-70
2021/11/28 13:08:04;;;;;;;4.60;0.60;;;16.20;63.70;;;;;;4995876;28;20081;-70
2021/11/28 13:10:36;;;;;;;8.60;0.75;;;16.30;64.90;;;;;;4996579;28;20397;-70
2021/11/28 13:13:24;;;;;;;5.93;1.10;;;16.40;65.10;;;;;;4979467;28;20046;-71
2021/11/28 13:16:13;;;;;;;9.90;0.70;;;16.50;65.30;;;;;;4995520;28;20046;-71
2021/11/28 13:18:47;;;;;;;5.97;0.70;;;16.50;65.10;;;;;;4996000;28;20047;-70
2021/11/28 13:21:21;;;;;;;3.17;0.40;;;16.60;64.90;;;;;;4995804;28;20058;-71
2021/11/28 13:23:48;;;;;;;;;;;16.50;64.80;;;;;;4996255;28;20065;-70
2021/11/28 13:26:22;;;;;;;6.50;0.65;;;16.60;65.10;;;;;;4995571;28;19929;-70